Winchester, Connecticut
Current Conditions -  °F | °C
As of 10:51 AM on Thursday 29 Jan 2015 (Local Time) from KBDL Reporting Station
Broken Clouds Broken Clouds  
Wind Chill: 12°   Ceiling: 25000
Heat Index: 19°   Visibility: 10mi
Dew Point:   Wind: 5mph
Humidity: 43%   Direction: 50°NE
Pressure: 30.3"   Gusts: NA
Location:  41.9462°N, 73.0763°W
Report Text: KBDL 291551Z 05004KT 10SM BKN250 M07/M18 A3030 RMK AO2 SLP263 T10721178
Loading
Personal Weather Stations






























Interactive Weather Map New forecast layout! Learn more

10-Day Weather Forecast

Advertisements
Track Severe Weather on mobile